EWG74A EDDK-LOWI
Flight info
| Callsign | EWG74A |
|---|---|
| Flight time | 0h 55m |
| Altitude | 34000 |
| Route | KUMIK2Q/13L KUMIK Y854 BOMBI DCT GIGET DCT ABUKA DCT BATUB M738 MADEB MADEB1B |
| Aircraft | A20N/M-SDE2E3FGHIRWXY/LB1 |
Departure
| Time | 2026-04-22 17:27 |
|---|---|
| Airport | Cologne Bonn Airport (EDDK) |
Arrival
| Time | 2026-04-22 18:23 |
|---|---|
| Airport | Innsbruck Airport (LOWI) |
| Time | Latitude | Longitude | Altitude | Speed | Heading |
|---|---|---|---|---|---|
| 2026-04-22 16:51 | 50.88106 | 7.12069 | 239 ft | 0 kts | 216° |
| 2026-04-22 17:17 | 50.88112 | 7.12076 | 240 ft | 2 kts | 216° |
| 2026-04-22 17:17 | 50.88124 | 7.12090 | 240 ft | 2 kts | 217° |
| 2026-04-22 17:18 | 50.88136 | 7.12104 | 240 ft | 2 kts | 216° |
| 2026-04-22 17:18 | 50.88146 | 7.12116 | 240 ft | 0 kts | 217° |
| 2026-04-22 17:18 | 50.88156 | 7.12126 | 240 ft | 2 kts | 204° |
| 2026-04-22 17:18 | 50.88170 | 7.12133 | 240 ft | 2 kts | 188° |
| 2026-04-22 17:19 | 50.88199 | 7.12128 | 240 ft | 2 kts | 156° |
| 2026-04-22 17:19 | 50.88221 | 7.12103 | 240 ft | 0 kts | 127° |
| 2026-04-22 17:20 | 50.88224 | 7.12094 | 240 ft | 0 kts | 124° |
| 2026-04-22 17:23 | 50.88213 | 7.12119 | 240 ft | 2 kts | 124° |
| 2026-04-22 17:23 | 50.88200 | 7.12151 | 240 ft | 4 kts | 124° |
| 2026-04-22 17:24 | 50.88179 | 7.12195 | 240 ft | 6 kts | 126° |
| 2026-04-22 17:24 | 50.88157 | 7.12261 | 240 ft | 7 kts | 106° |
| 2026-04-22 17:24 | 50.88157 | 7.12350 | 240 ft | 8 kts | 95° |
| 2026-04-22 17:24 | 50.88132 | 7.12421 | 240 ft | 6 kts | 131° |
| 2026-04-22 17:25 | 50.88102 | 7.12474 | 240 ft | 7 kts | 134° |
| 2026-04-22 17:25 | 50.88059 | 7.12538 | 240 ft | 9 kts | 138° |
| 2026-04-22 17:25 | 50.88007 | 7.12612 | 240 ft | 10 kts | 132° |
| 2026-04-22 17:25 | 50.87994 | 7.12712 | 240 ft | 8 kts | 79° |
| 2026-04-22 17:26 | 50.88006 | 7.12804 | 240 ft | 9 kts | 79° |
| 2026-04-22 17:26 | 50.88006 | 7.12922 | 240 ft | 11 kts | 100° |
| 2026-04-22 17:26 | 50.87963 | 7.13030 | 240 ft | 12 kts | 134° |
| 2026-04-22 17:26 | 50.87865 | 7.13173 | 237 ft | 41 kts | 138° |
| 2026-04-22 17:27 | 50.87455 | 7.13764 | 240 ft | 114 kts | 136° |
| 2026-04-22 17:27 | 50.86724 | 7.14823 | 279 ft | 169 kts | 135° |
| 2026-04-22 17:27 | 50.85812 | 7.16134 | 771 ft | 179 kts | 134° |
| 2026-04-22 17:27 | 50.84922 | 7.17407 | 1592 ft | 175 kts | 132° |
| 2026-04-22 17:28 | 50.84005 | 7.18742 | 2124 ft | 188 kts | 133° |
| 2026-04-22 17:28 | 50.82993 | 7.20165 | 2692 ft | 200 kts | 135° |
| 2026-04-22 17:28 | 50.82015 | 7.21718 | 3416 ft | 200 kts | 122° |
| 2026-04-22 17:28 | 50.81460 | 7.23752 | 3970 ft | 211 kts | 99° |
| 2026-04-22 17:29 | 50.81235 | 7.26113 | 4590 ft | 226 kts | 96° |
| 2026-04-22 17:29 | 50.81029 | 7.28675 | 5137 ft | 244 kts | 95° |
| 2026-04-22 17:29 | 50.80808 | 7.31379 | 5776 ft | 258 kts | 96° |
| 2026-04-22 17:29 | 50.80578 | 7.34201 | 6657 ft | 262 kts | 92° |
| 2026-04-22 17:30 | 50.80599 | 7.37067 | 7583 ft | 264 kts | 84° |
| 2026-04-22 17:30 | 50.80757 | 7.39906 | 8482 ft | 266 kts | 83° |
| 2026-04-22 17:30 | 50.80928 | 7.42810 | 9413 ft | 269 kts | 83° |
| 2026-04-22 17:30 | 50.81086 | 7.45751 | 10312 ft | 271 kts | 83° |
| 2026-04-22 17:31 | 50.81232 | 7.48695 | 11039 ft | 279 kts | 83° |
| 2026-04-22 17:31 | 50.81381 | 7.51846 | 11512 ft | 297 kts | 83° |
| 2026-04-22 17:31 | 50.81530 | 7.55164 | 12113 ft | 308 kts | 83° |
| 2026-04-22 17:31 | 50.81674 | 7.58507 | 12916 ft | 311 kts | 83° |
| 2026-04-22 17:32 | 50.81818 | 7.61922 | 13753 ft | 314 kts | 83° |
| 2026-04-22 17:32 | 50.81960 | 7.65335 | 14539 ft | 317 kts | 84° |
| 2026-04-22 17:32 | 50.82106 | 7.68854 | 15327 ft | 320 kts | 83° |
| 2026-04-22 17:32 | 50.82249 | 7.72333 | 16096 ft | 323 kts | 83° |
| 2026-04-22 17:33 | 50.82347 | 7.74729 | 16594 ft | 326 kts | 83° |
| 2026-04-22 17:33 | 50.82541 | 7.79516 | 17541 ft | 331 kts | 83° |
| 2026-04-22 17:33 | 50.82686 | 7.83116 | 18229 ft | 335 kts | 83° |
| 2026-04-22 17:33 | 50.82833 | 7.86811 | 18925 ft | 339 kts | 83° |
| 2026-04-22 17:34 | 50.82981 | 7.90545 | 19591 ft | 342 kts | 83° |
| 2026-04-22 17:34 | 50.83127 | 7.94273 | 20237 ft | 346 kts | 83° |
| 2026-04-22 17:34 | 50.83275 | 7.98082 | 20899 ft | 349 kts | 84° |
| 2026-04-22 17:34 | 50.83376 | 8.01935 | 21527 ft | 354 kts | 90° |
| 2026-04-22 17:35 | 50.82845 | 8.05723 | 22092 ft | 366 kts | 109° |
| 2026-04-22 17:35 | 50.81468 | 8.09146 | 22705 ft | 377 kts | 129° |
| 2026-04-22 17:35 | 50.79395 | 8.11757 | 23322 ft | 386 kts | 143° |
| 2026-04-22 17:35 | 50.77117 | 8.14026 | 23924 ft | 389 kts | 144° |
| 2026-04-22 17:36 | 50.74847 | 8.16274 | 24485 ft | 392 kts | 144° |
| 2026-04-22 17:36 | 50.72545 | 8.18564 | 25163 ft | 391 kts | 143° |
| 2026-04-22 17:36 | 50.70239 | 8.20863 | 25736 ft | 393 kts | 143° |
| 2026-04-22 17:36 | 50.67933 | 8.23171 | 26194 ft | 397 kts | 143° |
| 2026-04-22 17:37 | 50.65586 | 8.25522 | 26639 ft | 401 kts | 143° |
| 2026-04-22 17:37 | 50.63256 | 8.27856 | 27085 ft | 404 kts | 143° |
| 2026-04-22 17:37 | 50.60873 | 8.30241 | 27513 ft | 408 kts | 143° |
| 2026-04-22 17:37 | 50.58470 | 8.32644 | 27931 ft | 411 kts | 143° |
| 2026-04-22 17:38 | 50.56080 | 8.35030 | 28354 ft | 414 kts | 143° |
| 2026-04-22 17:38 | 50.53641 | 8.37462 | 28760 ft | 417 kts | 143° |
| 2026-04-22 17:38 | 50.51183 | 8.39912 | 29146 ft | 420 kts | 143° |
| 2026-04-22 17:38 | 50.48707 | 8.42376 | 29540 ft | 423 kts | 143° |
| 2026-04-22 17:39 | 50.46255 | 8.44813 | 29993 ft | 423 kts | 143° |
| 2026-04-22 17:39 | 50.43770 | 8.47278 | 30510 ft | 422 kts | 143° |
| 2026-04-22 17:39 | 50.38843 | 8.52152 | 31417 ft | 421 kts | 144° |
| 2026-04-22 17:40 | 50.36304 | 8.54450 | 31797 ft | 423 kts | 147° |
| 2026-04-22 17:40 | 50.33712 | 8.56626 | 32170 ft | 423 kts | 147° |
| 2026-04-22 17:40 | 50.31154 | 8.58771 | 32536 ft | 422 kts | 147° |
| 2026-04-22 17:40 | 50.28554 | 8.60948 | 32861 ft | 423 kts | 147° |
| 2026-04-22 17:41 | 50.25952 | 8.63127 | 33145 ft | 425 kts | 147° |
| 2026-04-22 17:41 | 50.23363 | 8.65292 | 33428 ft | 427 kts | 148° |
| 2026-04-22 17:41 | 50.20735 | 8.67488 | 33658 ft | 429 kts | 148° |
| 2026-04-22 17:41 | 50.18134 | 8.69659 | 33832 ft | 431 kts | 148° |
| 2026-04-22 17:42 | 50.15483 | 8.71868 | 33999 ft | 433 kts | 148° |
| 2026-04-22 17:42 | 50.12815 | 8.74079 | 34168 ft | 435 kts | 150° |
| 2026-04-22 17:42 | 50.10078 | 8.75981 | 34278 ft | 439 kts | 156° |
| 2026-04-22 17:43 | 50.04112 | 8.78335 | 34304 ft | 445 kts | 171° |
| 2026-04-22 17:43 | 49.97926 | 8.78487 | 34303 ft | 448 kts | 185° |
| 2026-04-22 17:44 | 49.91769 | 8.77210 | 34311 ft | 448 kts | 187° |
| 2026-04-22 17:44 | 49.85638 | 8.75876 | 34304 ft | 449 kts | 186° |
| 2026-04-22 17:45 | 49.79438 | 8.74583 | 34303 ft | 449 kts | 186° |
| 2026-04-22 17:45 | 49.73258 | 8.73317 | 34292 ft | 450 kts | 187° |
| 2026-04-22 17:46 | 49.67081 | 8.72055 | 34295 ft | 450 kts | 186° |
| 2026-04-22 17:46 | 49.60862 | 8.70802 | 34299 ft | 450 kts | 187° |
| 2026-04-22 17:47 | 49.54705 | 8.69569 | 34294 ft | 449 kts | 186° |
| 2026-04-22 17:47 | 49.48486 | 8.69310 | 34290 ft | 447 kts | 174° |
| 2026-04-22 17:48 | 49.42404 | 8.70858 | 34289 ft | 445 kts | 162° |
| 2026-04-22 17:48 | 49.36599 | 8.74050 | 34289 ft | 443 kts | 155° |
| 2026-04-22 17:49 | 49.30945 | 8.77659 | 34278 ft | 443 kts | 155° |
| 2026-04-22 17:49 | 49.25246 | 8.81262 | 34275 ft | 443 kts | 155° |
| 2026-04-22 17:50 | 49.19571 | 8.84818 | 34271 ft | 443 kts | 155° |
| 2026-04-22 17:50 | 49.13888 | 8.88359 | 34263 ft | 443 kts | 155° |
| 2026-04-22 17:51 | 49.08214 | 8.91887 | 34256 ft | 443 kts | 155° |
| 2026-04-22 17:51 | 49.02525 | 8.95416 | 34258 ft | 444 kts | 155° |
| 2026-04-22 17:52 | 48.96791 | 8.98961 | 34259 ft | 444 kts | 155° |
| 2026-04-22 17:52 | 48.91099 | 9.02472 | 34258 ft | 444 kts | 155° |
| 2026-04-22 17:53 | 48.85399 | 9.05978 | 34257 ft | 445 kts | 155° |
| 2026-04-22 17:53 | 48.79652 | 9.09503 | 34258 ft | 446 kts | 155° |
| 2026-04-22 17:54 | 48.73924 | 9.13012 | 34260 ft | 447 kts | 155° |
| 2026-04-22 17:54 | 48.68146 | 9.16543 | 34267 ft | 446 kts | 156° |
| 2026-04-22 17:55 | 48.62418 | 9.20032 | 34264 ft | 446 kts | 156° |
| 2026-04-22 17:55 | 48.56656 | 9.23534 | 34262 ft | 447 kts | 156° |
| 2026-04-22 17:56 | 48.50915 | 9.27013 | 34245 ft | 447 kts | 156° |
| 2026-04-22 17:56 | 48.45170 | 9.30487 | 34235 ft | 448 kts | 156° |
| 2026-04-22 17:57 | 48.39361 | 9.33992 | 34238 ft | 448 kts | 156° |
| 2026-04-22 17:57 | 48.33608 | 9.37458 | 34235 ft | 448 kts | 156° |
| 2026-04-22 17:58 | 48.27810 | 9.40938 | 34206 ft | 449 kts | 156° |
| 2026-04-22 17:58 | 48.24942 | 9.42656 | 33902 ft | 450 kts | 156° |
| 2026-04-22 17:58 | 48.22017 | 9.44407 | 33156 ft | 457 kts | 156° |
| 2026-04-22 17:58 | 48.19046 | 9.46187 | 32376 ft | 463 kts | 156° |
| 2026-04-22 17:59 | 48.16099 | 9.47948 | 31696 ft | 462 kts | 157° |
| 2026-04-22 17:59 | 48.13100 | 9.49737 | 30829 ft | 469 kts | 157° |
| 2026-04-22 17:59 | 48.10036 | 9.51561 | 29571 ft | 482 kts | 157° |
| 2026-04-22 17:59 | 48.06905 | 9.53421 | 28488 ft | 487 kts | 157° |
| 2026-04-22 18:00 | 48.04825 | 9.54670 | 27912 ft | 487 kts | 155° |
| 2026-04-22 18:00 | 48.00860 | 9.57672 | 27058 ft | 477 kts | 147° |
| 2026-04-22 18:00 | 47.98119 | 9.60382 | 26484 ft | 470 kts | 142° |
| 2026-04-22 18:00 | 47.95512 | 9.63182 | 25750 ft | 467 kts | 141° |
| 2026-04-22 18:01 | 47.92916 | 9.66018 | 25311 ft | 457 kts | 142° |
| 2026-04-22 18:01 | 47.90359 | 9.68808 | 24872 ft | 449 kts | 142° |
| 2026-04-22 18:01 | 47.87881 | 9.71501 | 24383 ft | 442 kts | 142° |
| 2026-04-22 18:01 | 47.85403 | 9.74183 | 23875 ft | 436 kts | 142° |
| 2026-04-22 18:02 | 47.82964 | 9.76814 | 23373 ft | 429 kts | 142° |
| 2026-04-22 18:02 | 47.80595 | 9.79365 | 22877 ft | 423 kts | 142° |
| 2026-04-22 18:02 | 47.78227 | 9.81909 | 22405 ft | 417 kts | 142° |
| 2026-04-22 18:02 | 47.75892 | 9.84413 | 21938 ft | 411 kts | 142° |
| 2026-04-22 18:03 | 47.73615 | 9.86852 | 21328 ft | 404 kts | 142° |
| 2026-04-22 18:03 | 47.71378 | 9.89242 | 20824 ft | 388 kts | 142° |
| 2026-04-22 18:03 | 47.69223 | 9.91542 | 20382 ft | 378 kts | 142° |
| 2026-04-22 18:03 | 47.67122 | 9.93787 | 19945 ft | 375 kts | 142° |
| 2026-04-22 18:04 | 47.65007 | 9.96046 | 19503 ft | 373 kts | 142° |
| 2026-04-22 18:04 | 47.62907 | 9.98284 | 19087 ft | 370 kts | 142° |
| 2026-04-22 18:04 | 47.60845 | 10.00458 | 18652 ft | 367 kts | 144° |
| 2026-04-22 18:04 | 47.58611 | 10.02272 | 18253 ft | 364 kts | 152° |
| 2026-04-22 18:05 | 47.56323 | 10.03845 | 17816 ft | 361 kts | 153° |
| 2026-04-22 18:05 | 47.54039 | 10.05360 | 17365 ft | 358 kts | 154° |
| 2026-04-22 18:05 | 47.51799 | 10.06832 | 16917 ft | 355 kts | 154° |
| 2026-04-22 18:05 | 47.49567 | 10.08294 | 16695 ft | 345 kts | 154° |
| 2026-04-22 18:06 | 47.47423 | 10.09692 | 16419 ft | 328 kts | 154° |
| 2026-04-22 18:06 | 47.45409 | 10.11001 | 16128 ft | 313 kts | 154° |
| 2026-04-22 18:06 | 47.43460 | 10.12257 | 15848 ft | 298 kts | 154° |
| 2026-04-22 18:06 | 47.41583 | 10.13457 | 15454 ft | 291 kts | 154° |
| 2026-04-22 18:07 | 47.39743 | 10.14621 | 15242 ft | 283 kts | 154° |
| 2026-04-22 18:07 | 47.37975 | 10.15735 | 15221 ft | 275 kts | 154° |
| 2026-04-22 18:07 | 47.36254 | 10.16808 | 15205 ft | 261 kts | 154° |
| 2026-04-22 18:07 | 47.34591 | 10.17835 | 15203 ft | 258 kts | 154° |
| 2026-04-22 18:08 | 47.32949 | 10.18845 | 15213 ft | 259 kts | 154° |
| 2026-04-22 18:08 | 47.31389 | 10.20116 | 15189 ft | 253 kts | 130° |
| 2026-04-22 18:08 | 47.30556 | 10.22259 | 14970 ft | 237 kts | 95° |
| 2026-04-22 18:08 | 47.30445 | 10.24656 | 14600 ft | 234 kts | 86° |
| 2026-04-22 18:09 | 47.30439 | 10.27026 | 14252 ft | 235 kts | 87° |
| 2026-04-22 18:09 | 47.30390 | 10.29427 | 13941 ft | 234 kts | 89° |
| 2026-04-22 18:09 | 47.30294 | 10.31813 | 13646 ft | 233 kts | 91° |
| 2026-04-22 18:09 | 47.30168 | 10.34150 | 13334 ft | 232 kts | 91° |
| 2026-04-22 18:10 | 47.30022 | 10.36514 | 13061 ft | 229 kts | 92° |
| 2026-04-22 18:10 | 47.29866 | 10.38853 | 13022 ft | 230 kts | 92° |
| 2026-04-22 18:10 | 47.29707 | 10.41176 | 13008 ft | 231 kts | 92° |
| 2026-04-22 18:10 | 47.29540 | 10.43542 | 13005 ft | 232 kts | 92° |
| 2026-04-22 18:11 | 47.29371 | 10.45904 | 13002 ft | 231 kts | 92° |
| 2026-04-22 18:11 | 47.29201 | 10.48264 | 12989 ft | 231 kts | 92° |
| 2026-04-22 18:11 | 47.29033 | 10.50587 | 12980 ft | 231 kts | 92° |
| 2026-04-22 18:11 | 47.28863 | 10.52947 | 12981 ft | 231 kts | 92° |
| 2026-04-22 18:12 | 47.28696 | 10.55303 | 12981 ft | 231 kts | 91° |
| 2026-04-22 18:12 | 47.28621 | 10.57624 | 12985 ft | 228 kts | 86° |
| 2026-04-22 18:12 | 47.28643 | 10.59139 | 12983 ft | 217 kts | 83° |
| 2026-04-22 18:12 | 47.28754 | 10.61973 | 13066 ft | 205 kts | 83° |
| 2026-04-22 18:13 | 47.28841 | 10.64046 | 13046 ft | 205 kts | 83° |
| 2026-04-22 18:13 | 47.28927 | 10.66151 | 13042 ft | 206 kts | 84° |
| 2026-04-22 18:13 | 47.29013 | 10.68264 | 12934 ft | 207 kts | 84° |
| 2026-04-22 18:13 | 47.29099 | 10.70378 | 12598 ft | 205 kts | 84° |
| 2026-04-22 18:14 | 47.29180 | 10.72403 | 12201 ft | 199 kts | 84° |
| 2026-04-22 18:14 | 47.29261 | 10.74420 | 11726 ft | 197 kts | 84° |
| 2026-04-22 18:14 | 47.29341 | 10.76413 | 11298 ft | 195 kts | 84° |
| 2026-04-22 18:14 | 47.29421 | 10.78407 | 10916 ft | 195 kts | 84° |
| 2026-04-22 18:15 | 47.29498 | 10.80364 | 10546 ft | 193 kts | 84° |
| 2026-04-22 18:15 | 47.29575 | 10.82332 | 10281 ft | 192 kts | 84° |
| 2026-04-22 18:15 | 47.29652 | 10.84297 | 10103 ft | 192 kts | 84° |
| 2026-04-22 18:15 | 47.29727 | 10.86237 | 9963 ft | 194 kts | 84° |
| 2026-04-22 18:16 | 47.29805 | 10.88248 | 9772 ft | 198 kts | 84° |
| 2026-04-22 18:16 | 47.29883 | 10.90275 | 9385 ft | 197 kts | 84° |
| 2026-04-22 18:16 | 47.29958 | 10.92263 | 9038 ft | 196 kts | 84° |
| 2026-04-22 18:16 | 47.30035 | 10.94270 | 8704 ft | 196 kts | 84° |
| 2026-04-22 18:17 | 47.30111 | 10.96265 | 8402 ft | 194 kts | 85° |
| 2026-04-22 18:17 | 47.30185 | 10.98229 | 8062 ft | 194 kts | 85° |
| 2026-04-22 18:17 | 47.30258 | 11.00206 | 7718 ft | 193 kts | 85° |
| 2026-04-22 18:17 | 47.30329 | 11.02173 | 7390 ft | 191 kts | 85° |
| 2026-04-22 18:18 | 47.30394 | 11.04097 | 7063 ft | 190 kts | 85° |
| 2026-04-22 18:18 | 47.30275 | 11.06032 | 6718 ft | 191 kts | 102° |
| 2026-04-22 18:18 | 47.29870 | 11.07896 | 6379 ft | 191 kts | 108° |
| 2026-04-22 18:18 | 47.29383 | 11.09713 | 6038 ft | 190 kts | 109° |
| 2026-04-22 18:19 | 47.28892 | 11.11489 | 5704 ft | 190 kts | 109° |
| 2026-04-22 18:19 | 47.28394 | 11.13284 | 5369 ft | 189 kts | 109° |
| 2026-04-22 18:19 | 47.27897 | 11.15068 | 5014 ft | 188 kts | 109° |
| 2026-04-22 18:19 | 47.27409 | 11.16822 | 4645 ft | 187 kts | 109° |
| 2026-04-22 18:20 | 47.26921 | 11.18577 | 4293 ft | 182 kts | 109° |
| 2026-04-22 18:20 | 47.26450 | 11.20262 | 4000 ft | 172 kts | 109° |
| 2026-04-22 18:20 | 47.26020 | 11.21809 | 3760 ft | 159 kts | 108° |
| 2026-04-22 18:20 | 47.25644 | 11.23261 | 3555 ft | 145 kts | 105° |
| 2026-04-22 18:21 | 47.25395 | 11.24655 | 3246 ft | 135 kts | 99° |
| 2026-04-22 18:21 | 47.25256 | 11.25982 | 3008 ft | 132 kts | 91° |
| 2026-04-22 18:21 | 47.25261 | 11.27314 | 2758 ft | 129 kts | 82° |
| 2026-04-22 18:21 | 47.25393 | 11.28614 | 2547 ft | 128 kts | 78° |
| 2026-04-22 18:22 | 47.25545 | 11.29911 | 2371 ft | 128 kts | 80° |
| 2026-04-22 18:22 | 47.25681 | 11.31189 | 2209 ft | 128 kts | 81° |
| 2026-04-22 18:22 | 47.25809 | 11.32481 | 2041 ft | 128 kts | 78° |
| 2026-04-22 18:22 | 47.25952 | 11.33760 | 1915 ft | 121 kts | 81° |
| 2026-04-22 18:23 | 47.26042 | 11.34592 | 1911 ft | 53 kts | 80° |
| 2026-04-22 18:23 | 47.26092 | 11.35055 | 1908 ft | 30 kts | 81° |
| 2026-04-22 18:23 | 47.26100 | 11.35226 | 1907 ft | 11 kts | 118° |
| 2026-04-22 18:24 | 47.25953 | 11.35287 | 1907 ft | 3 kts | 171° |
| 2026-04-22 18:24 | 47.25941 | 11.35290 | 1907 ft | 0 kts | 170° |
| 2026-04-22 18:24 | 47.25909 | 11.35295 | 1907 ft | 3 kts | 174° |
| 2026-04-22 18:25 | 47.25886 | 11.35299 | 1907 ft | 3 kts | 172° |
| 2026-04-22 18:25 | 47.25861 | 11.35305 | 1907 ft | 2 kts | 170° |
| 2026-04-22 18:25 | 47.25853 | 11.35307 | 1907 ft | 0 kts | 170° |